Etusivu
METAR-TAF:

METAR-TAF

Lentoasemat :

Kelowna, Brittiläinen Kolumbia, Kanada

Leveyspiiri: 49-58N, Pituuspiiri: 119-23W, korkeus merenpinnasta: 430 m

Tämänhetkinen sää

Tämä raportti tehtiin 1 tunti ja 8 minuuttia sitten, kello 18.00 UTC
Tuuli 3 kn lännestä/lounaasta, vaihdellen kaakon ja lännen/luoteen välillä
Lämpötila 18°C
Kosteus 34%
Ilmanpaine 1006 hPa
Näkyvyys: 14.5 km
Hajonneita pilviä 9000 ft:n korkeudessa

METAR: CYLW 201800Z AUTO 25003KT 140V290 9SM BKN090 18/02 A2971 RMK SLP062 DENSITY ALT 2200FT

Aika: 12:08 (19:08 UTC)

Sääennuste

Tämä raportti tehtiin 30 minuuttia sitten, kello 18.38 UTC
Ennuste voimassa 20. päivästä klo 19 UTC - 21. päivään klo 07 UTC
Tuuli 5 kn etelästä/lounaasta
Näkyvyys: 10 km
Hajanaisia pilviä 9000 ft:n korkeudessa
Ajoittain
20. päivästä klo 19 UTC - 21. päivään klo 07 UTC
Hajonneita pilviä 9000 ft:n korkeudessa

TAF: CYLW 201838Z 2019/2107 21005KT P6SM SCT090 TEMPO 2019/2107 BKN090 RMK FCST BASED ON AUTO OBS. NXT FCST BY 210100Z

Säähavainnot ja -ennusteet yli 4000 lentoasemalta (METAR- ja TAF-raportit).

Käytössä olevat sääasemat on merkitty karttaan keltaisilla ja punaisilla pisteillä.

Aseta hiiri pisteen päälle nähdäksesi sääaseman nimen.

Klikkaa sitten nähdäksesi säähavainnot ja -ennusteet.

Kartan vaihtaminen: klikkaa mustalla rastilla varustettuja vihreitä pisteitä, niin voit zoomata sisään; viivalla varustettua vihreää pistettä, niin voit zoomata ulos tai vihreitä nuolia, niin pääset viereisille kartoille.


METAR-TAF: